Time;durP1;ratioP1;P1;durP2;ratioP2;P2;SDS_P1;SDS_P2;PMS_P1;PMS_P2;Temp;Humidity;BMP_temperature;BMP_pressure;BME280_temperature;BME280_humidity;BME280_pressure;Samples;Min_cycle;Max_cycle;Signal;HPM_P1;HPM_P2
2022/05/06 00:01:07;;;;;;;10.75;5.10;;;;;;;14.54;73.34;100736.31;4470574;31;20150;-68
2022/05/06 00:03:37;;;;;;;9.88;4.65;;;;;;;14.55;73.47;100737.19;4470345;31;20148;-68
2022/05/06 00:06:04;;;;;;;10.95;5.00;;;;;;;14.61;74.27;100738.84;4469697;32;20542;-68
2022/05/06 00:08:31;;;;;;;10.63;5.20;;;;;;;14.67;72.83;100734.25;4470356;31;20404;-68
2022/05/06 00:10:59;;;;;;;6.60;4.95;;;;;;;14.65;74.04;100730.75;4468632;32;20292;-68
2022/05/06 00:13:27;;;;;;;6.80;5.10;;;;;;;14.64;73.29;100726.38;4470234;31;20084;-68
2022/05/06 00:15:54;;;;;;;6.95;5.57;;;;;;;14.64;72.71;100721.06;4470577;31;20093;-68
2022/05/06 00:18:21;;;;;;;8.95;5.68;;;;;;;14.60;74.63;100731.78;4470392;31;20228;-68
2022/05/06 00:20:48;;;;;;;6.55;5.32;;;;;;;14.50;74.68;100715.22;4470119;31;20160;-68
2022/05/06 00:23:15;;;;;;;11.43;5.05;;;;;;;14.47;75.37;100717.91;4470276;31;20111;-68
2022/05/06 00:25:43;;;;;;;6.12;4.87;;;;;;;14.50;73.92;100729.34;4470247;31;20113;-68
2022/05/06 00:28:10;;;;;;;9.93;5.35;;;;;;;14.63;73.21;100729.94;4470177;31;20134;-68
2022/05/06 00:30:37;;;;;;;13.27;5.30;;;;;;;14.57;74.15;100724.78;4470147;31;20601;-68
2022/05/06 00:33:07;;;;;;;5.30;4.80;;;;;;;14.59;74.28;100736.19;4470159;31;20153;-68
2022/05/06 00:35:34;;;;;;;7.65;4.80;;;;;;;14.51;75.41;100727.56;4470351;31;20096;-68
2022/05/06 00:38:02;;;;;;;6.97;4.65;;;;;;;14.47;76.14;100732.03;4470206;31;20173;-68
2022/05/06 00:40:29;;;;;;;5.12;4.62;;;;;;;14.43;76.84;100727.69;4470126;32;20521;-68
2022/05/06 00:42:57;;;;;;;7.85;4.82;;;;;;;14.36;75.52;100731.41;4470198;31;20120;-68
2022/05/06 00:45:32;;;;;;;6.97;5.15;;;;;;;14.32;76.76;100725.28;4470089;31;20161;-68
2022/05/06 00:47:59;;;;;;;8.90;5.07;;;;;;;14.30;77.63;100728.87;4470306;31;20088;-68
2022/05/06 00:50:27;;;;;;;8.13;4.93;;;;;;;14.31;76.88;100728.84;4470140;31;20174;-68
2022/05/06 00:52:54;;;;;;;7.95;5.30;;;;;;;14.25;77.02;100721.03;4470087;31;20141;-68
2022/05/06 00:55:23;;;;;;;6.32;4.95;;;;;;;14.19;76.43;100729.09;4470151;32;20156;-68
2022/05/06 00:57:50;;;;;;;4.85;4.45;;;;;;;14.24;76.45;100732.53;4469973;31;20460;-68
2022/05/06 01:00:18;;;;;;;6.00;5.15;;;;;;;14.28;75.39;100723.62;4469960;31;20145;-68
2022/05/06 01:02:47;;;;;;;5.62;5.07;;;;;;;14.27;76.10;100726.28;4469871;31;20145;-68
2022/05/06 01:05:15;;;;;;;7.70;5.62;;;;;;;14.23;76.04;100728.13;4470165;31;20088;-68
2022/05/06 01:07:45;;;;;;;5.25;4.75;;;;;;;14.19;77.21;100734.41;4470180;31;20092;-68
2022/05/06 01:10:13;;;;;;;6.15;4.90;;;;;;;14.18;77.23;100737.97;4470155;32;20088;-68
2022/05/06 01:12:40;;;;;;;7.10;5.62;;;;;;;14.10;77.19;100735.47;4469936;31;20169;-68
2022/05/06 01:15:28;;;;;;;6.32;5.15;;;;;;;14.07;76.53;100746.13;4469764;31;20519;-68
2022/05/06 01:17:58;;;;;;;5.78;5.18;;;;;;;14.06;76.79;100756.75;4470191;31;20096;-68
2022/05/06 01:20:26;;;;;;;7.37;5.70;;;;;;;14.02;77.65;100749.78;4469682;31;20108;-68
2022/05/06 01:22:59;;;;;;;8.32;5.70;;;;;;;13.99;78.06;100742.78;4470012;31;20115;-68
2022/05/06 01:25:27;;;;;;;7.00;5.78;;;;;;;14.00;78.50;100738.34;4470064;32;20145;-67
2022/05/06 01:28:00;;;;;;;7.37;5.82;;;;;;;14.00;78.29;100727.75;4469655;31;20096;-68
2022/05/06 01:30:29;;;;;;;7.60;6.03;;;;;;;13.98;78.97;100733.06;4469698;31;20092;-68
2022/05/06 01:32:57;;;;;;;7.70;5.68;;;;;;;13.96;79.17;100741.97;4469680;32;20112;-68
2022/05/06 01:35:27;;;;;;;7.72;5.82;;;;;;;13.91;77.84;100739.38;4469676;31;20088;-68
2022/05/06 01:37:58;;;;;;;10.70;6.03;;;;;;;13.89;79.66;100738.56;4468004;32;20150;-68
2022/05/06 01:40:27;;;;;;;9.35;5.80;;;;;;;13.93;79.06;100739.38;4469856;31;20160;-68
2022/05/06 01:42:58;;;;;;;8.02;6.30;;;;;;;13.87;79.49;100732.41;4469726;31;20085;-68
2022/05/06 01:45:29;;;;;;;9.65;5.60;;;;;;;13.91;80.00;100730.56;4469901;31;20084;-68
2022/05/06 01:48:02;;;;;;;7.12;5.93;;;;;;;13.89;79.16;100725.31;4469551;31;20093;-68
2022/05/06 01:50:37;;;;;;;7.15;6.45;;;;;;;13.94;79.38;100735.81;4469647;31;20088;-68
2022/05/06 01:53:08;;;;;;;7.47;5.78;;;;;;;14.00;79.26;100738.34;4469666;31;20489;-67
2022/05/06 01:55:36;;;;;;;8.23;6.10;;;;;;;14.08;79.54;100731.09;4469620;31;20080;-67
2022/05/06 01:58:04;;;;;;;9.57;6.35;;;;;;;14.08;79.50;100741.72;4469395;31;20088;-67
2022/05/06 02:00:32;;;;;;;6.78;6.15;;;;;;;14.06;79.44;100740.84;4469591;32;20427;-68
2022/05/06 02:02:59;;;;;;;12.15;6.72;;;;;;;13.98;79.36;100745.44;4469346;31;20111;-68
2022/05/06 02:05:27;;;;;;;8.68;6.12;;;;;;;14.00;80.28;100741.87;4469400;31;20119;-68
2022/05/06 02:07:54;;;;;;;11.70;6.95;;;;;;;13.98;80.36;100740.12;4469444;31;20191;-68
2022/05/06 02:10:25;;;;;;;7.15;6.40;;;;;;;13.96;80.09;100732.25;4469126;31;20681;-68
2022/05/06 02:12:52;;;;;;;8.30;6.20;;;;;;;13.93;80.69;100736.72;4469529;32;20080;-68
2022/05/06 02:15:20;;;;;;;9.05;7.10;;;;;;;13.85;80.55;100735.09;4469333;32;20114;-68
2022/05/06 02:17:49;;;;;;;7.55;6.75;;;;;;;13.83;81.25;100739.53;4469312;31;20157;-68
2022/05/06 02:20:17;;;;;;;8.48;6.85;;;;;;;13.80;81.54;100739.59;4469164;31;20161;-68
2022/05/06 02:22:45;;;;;;;8.15;6.75;;;;;;;13.75;80.77;100743.25;4469169;32;20462;-68
2022/05/06 02:25:13;;;;;;;8.15;6.53;;;;;;;13.73;81.72;100745.91;4469171;31;20088;-68
2022/05/06 02:27:41;;;;;;;6.75;6.05;;;;;;;13.78;81.06;100749.37;4469545;31;20848;-68
2022/05/06 02:33:13;;;;;;;9.05;6.80;;;;;;;13.67;80.80;100738.09;4471258;31;20072;-68
2022/05/06 02:35:43;;;;;;;10.05;7.25;;;;;;;13.62;80.80;100739.97;4471243;31;20084;-67
2022/05/06 02:38:12;;;;;;;10.98;7.05;;;;;;;13.57;81.92;100741.84;4471190;31;20472;-68
2022/05/06 02:40:40;;;;;;;10.07;6.28;;;;;;;13.64;81.36;100746.13;4471207;31;20586;-68
2022/05/06 02:43:07;;;;;;;8.50;6.65;;;;;;;13.62;80.45;100759.34;4471132;31;20122;-67
2022/05/06 02:45:35;;;;;;;7.43;6.68;;;;;;;13.58;81.14;100756.81;4469482;32;20093;-68
2022/05/06 02:48:03;;;;;;;7.25;6.55;;;;;;;13.57;81.87;100755.06;4471078;31;20408;-67
2022/05/06 02:50:31;;;;;;;8.02;6.60;;;;;;;13.53;81.67;100743.66;4471023;31;20104;-68
2022/05/06 02:53:00;;;;;;;7.20;6.12;;;;;;;13.52;81.78;100747.19;4470828;32;20089;-68
2022/05/06 02:55:28;;;;;;;7.68;6.35;;;;;;;13.52;81.28;100746.31;4471147;31;20114;-68
2022/05/06 02:57:56;;;;;;;8.52;6.07;;;;;;;13.50;82.09;100751.66;4471115;31;20574;-68
2022/05/06 03:00:24;;;;;;;7.87;7.07;;;;;;;13.55;81.11;100740.97;4470969;31;20171;-68
2022/05/06 03:02:52;;;;;;;12.50;6.70;;;;;;;13.44;81.48;100738.53;4471149;31;20096;-68
2022/05/06 03:05:19;;;;;;;14.32;6.12;;;;;;;13.40;81.71;100742.13;4469305;32;20118;-68
2022/05/06 03:07:47;;;;;;;7.75;6.55;;;;;;;13.34;82.77;100734.28;4470945;31;20108;-68
2022/05/06 03:10:15;;;;;;;8.35;6.40;;;;;;;13.34;82.54;100727.22;4471012;31;20096;-68
2022/05/06 03:12:43;;;;;;;7.62;6.45;;;;;;;13.28;82.70;100729.97;4470866;31;20144;-68
2022/05/06 03:15:11;;;;;;;9.20;6.35;;;;;;;13.27;82.72;100732.66;4470857;31;20546;-68
2022/05/06 03:17:39;;;;;;;6.60;5.90;;;;;;;13.27;82.80;100725.59;4470738;31;20508;-68
2022/05/06 03:20:08;;;;;;;7.90;6.10;;;;;;;13.29;82.13;100734.38;4470571;31;20522;-68
2022/05/06 03:22:46;;;;;;;7.82;6.35;;;;;;;13.32;82.73;100734.34;4470730;31;20144;-68
2022/05/06 03:25:14;;;;;;;11.60;6.55;;;;;;;13.26;84.17;100736.22;4470711;31;20505;-68
2022/05/06 03:30:47;;;;;;;13.62;6.82;;;;;;;13.26;82.75;100739.72;4452447;32;20104;-67
2022/05/06 03:33:16;;;;;;;7.37;5.95;;;;;;;13.27;81.97;100745.87;4470815;31;20076;-68
2022/05/06 03:35:44;;;;;;;7.60;5.62;;;;;;;13.32;82.05;100746.66;4470612;31;20122;-68
2022/05/06 03:38:13;;;;;;;9.13;5.75;;;;;;;13.43;81.58;100743.81;4470554;31;20196;-68
2022/05/06 03:40:41;;;;;;;7.70;5.65;;;;;;;13.43;81.40;100752.66;4469709;31;20513;-68
2022/05/06 03:43:08;;;;;;;6.80;5.93;;;;;;;13.39;81.86;100751.84;4470695;31;20133;-68
2022/05/06 03:45:39;;;;;;;10.23;6.15;;;;;;;13.37;82.44;100758.06;4470720;31;20254;-68
2022/05/06 03:48:07;;;;;;;6.53;5.93;;;;;;;13.39;82.76;100753.59;4465144;31;20108;-68
2022/05/06 03:53:23;;;;;;;7.82;7.03;;;;;;;13.49;82.55;100746.38;4462543;32;20092;-68
2022/05/06 03:55:52;;;;;;;11.75;7.93;;;;;;;13.52;82.19;100747.19;4462784;32;20125;-68
2022/05/06 03:58:24;;;;;;;7.62;6.65;;;;;;;13.61;82.86;100746.16;4461000;32;20780;-68
2022/05/06 04:00:52;;;;;;;7.55;6.30;;;;;;;13.67;82.50;100753.97;4462370;32;20105;-68
2022/05/06 04:03:20;;;;;;;12.07;6.32;;;;;;;13.71;81.66;100763.63;4461418;32;20123;-68
2022/05/06 04:05:48;;;;;;;11.45;6.78;;;;;;;13.76;81.58;100767.06;4462756;32;20134;-68
2022/05/06 04:08:15;;;;;;;7.12;6.10;;;;;;;13.85;82.10;100763.34;4462506;32;20694;-68
2022/05/06 04:10:44;;;;;;;8.63;6.82;;;;;;;13.93;81.08;100760.56;4461361;32;20139;-68
2022/05/06 04:13:11;;;;;;;7.95;6.00;;;;;;;14.01;80.39;100771.88;4462323;32;20171;-68
2022/05/06 04:15:39;;;;;;;9.45;6.05;;;;;;;14.13;80.54;100770.75;4463021;32;20406;-68
2022/05/06 04:18:08;;;;;;;10.10;6.32;;;;;;;14.22;79.46;100775.87;4454752;32;20093;-68
2022/05/06 04:23:29;;;;;;;9.77;6.50;;;;;;;14.43;78.96;100779.84;4454829;32;20400;-68
2022/05/06 04:26:02;;;;;;;10.18;6.05;;;;;;;14.52;79.46;100779.66;4454887;32;20415;-68
2022/05/06 04:28:31;;;;;;;9.77;6.45;;;;;;;14.63;79.03;100790.03;4454872;32;20118;-69
2022/05/06 04:30:59;;;;;;;9.65;6.00;;;;;;;14.73;78.42;100794.25;4454708;32;20562;-69
2022/05/06 04:33:28;;;;;;;9.82;6.80;;;;;;;14.88;77.33;100795.69;4454638;32;20169;-68
2022/05/06 04:35:57;;;;;;;11.85;6.12;;;;;;;14.98;76.23;100791.91;4455059;32;20162;-68
2022/05/06 04:38:27;;;;;;;9.80;6.37;;;;;;;15.08;75.99;100796.06;4455052;32;20092;-68
2022/05/06 04:40:56;;;;;;;14.50;6.70;;;;;;;15.17;75.97;100806.50;4453935;32;20158;-69
2022/05/06 04:43:25;;;;;;;14.90;7.45;;;;;;;15.25;75.27;100803.66;4455430;32;20089;-68
2022/05/06 04:45:53;;;;;;;51.28;7.35;;;;;;;15.36;75.06;100806.91;4455400;32;20108;-68
2022/05/06 04:48:22;;;;;;;9.50;6.55;;;;;;;15.49;74.50;100810.13;4455204;32;20093;-67
2022/05/06 04:50:50;;;;;;;9.32;5.62;;;;;;;15.68;73.78;100807.91;4454798;32;20101;-68
2022/05/06 04:53:17;;;;;;;9.77;6.05;;;;;;;15.84;72.93;100809.25;4460480;32;20076;-69
2022/05/06 04:55:47;;;;;;;11.57;5.93;;;;;;;15.99;72.57;100814.13;4455206;32;20816;-68
2022/05/06 04:58:16;;;;;;;11.95;6.40;;;;;;;16.10;71.34;100816.50;4454792;32;20456;-69
2022/05/06 05:00:44;;;;;;;15.27;6.05;;;;;;;16.20;71.60;100828.62;4454730;32;20110;-69
2022/05/06 05:03:11;;;;;;;8.10;5.78;;;;;;;16.15;71.70;100830.56;4454323;32;20144;-69
2022/05/06 05:05:39;;;;;;;8.93;6.30;;;;;;;16.14;71.23;100825.25;4440124;32;20196;-69
2022/05/06 05:08:08;;;;;;;9.60;5.57;;;;;;;16.05;71.66;100823.75;4453978;32;20456;-69
2022/05/06 05:10:36;;;;;;;8.05;5.90;;;;;;;16.08;71.32;100825.41;4454330;32;20584;-69
2022/05/06 05:13:05;;;;;;;9.20;5.55;;;;;;;16.18;71.37;100825.16;4454341;32;20361;-69
2022/05/06 05:15:33;;;;;;;8.40;5.90;;;;;;;16.10;70.98;100821.81;4454100;32;20123;-69
2022/05/06 05:18:02;;;;;;;7.07;6.07;;;;;;;16.15;71.23;100819.91;4454721;32;20097;-69
2022/05/06 05:20:30;;;;;;;7.30;4.93;;;;;;;16.20;70.97;100820.66;4454370;32;20100;-69
2022/05/06 05:22:57;;;;;;;19.80;6.07;;;;;;;16.29;70.90;100814.22;4454839;32;20145;-69
2022/05/06 05:25:24;;;;;;;11.43;6.10;;;;;;;16.35;70.97;100813.16;4454773;32;20114;-69
2022/05/06 05:27:52;;;;;;;10.60;6.82;;;;;;;16.39;71.62;100820.13;4439698;32;20097;-69
2022/05/06 05:30:22;;;;;;;10.38;5.82;;;;;;;16.35;70.75;100819.34;4453895;32;20126;-69
2022/05/06 05:32:49;;;;;;;9.05;6.05;;;;;;;16.42;70.13;100822.69;4454130;32;20115;-69
2022/05/06 05:35:17;;;;;;;13.98;6.10;;;;;;;16.40;70.42;100819.22;4453991;32;20088;-69
2022/05/06 05:37:44;;;;;;;10.52;6.68;;;;;;;16.46;70.26;100814.56;4454016;32;20127;-69
2022/05/06 05:40:12;;;;;;;11.45;6.32;;;;;;;16.55;70.03;100817.91;4454082;32;20116;-70
2022/05/06 05:42:40;;;;;;;11.50;5.80;;;;;;;16.63;69.50;100822.06;4453770;32;20111;-70
2022/05/06 05:50:54;;;;;;;17.77;6.22;;;;;;;16.69;70.55;100827.22;4426832;32;20150;-68
2022/05/06 05:53:23;;;;;;;10.32;5.43;;;;;;;16.77;70.24;100823.47;4454034;32;20102;-69
2022/05/06 05:55:51;;;;;;;23.58;7.37;;;;;;;16.87;68.92;100835.59;4453746;32;20157;-68
2022/05/06 05:58:18;;;;;;;11.88;6.70;;;;;;;16.99;69.88;100834.31;4453550;32;20459;-68
2022/05/06 06:00:45;;;;;;;17.85;6.40;;;;;;;17.01;68.83;100833.37;4453589;32;20530;-69
2022/05/06 06:03:13;;;;;;;8.70;6.47;;;;;;;17.14;68.95;100839.19;4454254;32;20081;-68
2022/05/06 06:05:41;;;;;;;11.02;6.40;;;;;;;17.22;67.89;100841.59;4455215;32;20509;-68
2022/05/06 06:08:08;;;;;;;11.43;6.70;;;;;;;17.25;67.32;100842.38;4455310;32;20107;-68
2022/05/06 06:10:38;;;;;;;15.38;7.37;;;;;;;17.30;68.04;100851.06;4455417;32;20491;-68
2022/05/06 06:13:06;;;;;;;10.32;7.12;;;;;;;17.36;67.60;100844.69;4455417;32;20161;-68
2022/05/06 06:15:34;;;;;;;16.77;7.80;;;;;;;17.43;67.04;100839.09;4455240;32;20162;-68
2022/05/06 06:18:01;;;;;;;16.05;7.22;;;;;;;17.62;66.88;100842.00;4459541;32;20118;-68
2022/05/06 06:20:29;;;;;;;9.63;7.22;;;;;;;17.65;67.00;100844.59;4461366;32;20097;-68
2022/05/06 06:22:56;;;;;;;10.77;7.18;;;;;;;17.65;66.20;100847.25;4455337;32;20140;-68
2022/05/06 06:25:24;;;;;;;8.00;6.70;;;;;;;17.77;65.88;100848.66;4455426;32;20492;-68
2022/05/06 06:27:53;;;;;;;10.07;6.35;;;;;;;17.81;65.58;100844.97;4455368;32;20131;-68
2022/05/06 06:30:21;;;;;;;19.45;7.20;;;;;;;17.90;65.41;100847.31;4455552;32;20168;-68
2022/05/06 06:32:53;;;;;;;16.65;6.80;;;;;;;17.94;64.67;100853.41;4455195;32;20077;-67
2022/05/06 06:35:22;;;;;;;23.80;7.70;;;;;;;18.00;64.38;100852.34;4455179;32;20093;-68
2022/05/06 06:37:49;;;;;;;12.73;6.85;;;;;;;18.18;66.57;100851.69;4455434;32;20147;-68
2022/05/06 06:40:18;;;;;;;15.88;6.90;;;;;;;18.39;64.74;100850.03;4455233;32;20097;-68
2022/05/06 06:42:46;;;;;;;18.55;6.85;;;;;;;18.45;65.21;100852.47;4455416;32;20169;-68
2022/05/06 06:45:14;;;;;;;76.85;9.65;;;;;;;18.49;63.69;100856.75;4455319;32;20081;-68
2022/05/06 06:47:43;;;;;;;18.12;7.22;;;;;;;18.52;62.16;100847.78;4455008;32;20180;-68
2022/05/06 06:50:12;;;;;;;14.18;6.95;;;;;;;18.56;62.01;100844.06;4455623;32;20152;-67
2022/05/06 06:52:40;;;;;;;15.10;7.22;;;;;;;18.60;62.68;100849.22;4453486;32;20158;-67
2022/05/06 06:55:08;;;;;;;15.05;7.70;;;;;;;18.57;62.77;100852.00;4455387;32;20101;-67
2022/05/06 06:57:35;;;;;;;17.62;7.47;;;;;;;18.58;62.03;100847.53;4455106;32;20131;-67
2022/05/06 07:00:05;;;;;;;11.93;7.05;;;;;;;18.66;62.73;100841.91;4455055;32;20100;-68
2022/05/06 07:02:38;;;;;;;13.65;6.97;;;;;;;18.82;63.14;100843.09;4455260;32;20077;-68
2022/05/06 07:05:06;;;;;;;12.63;7.10;;;;;;;19.12;61.20;100838.38;4455263;32;20093;-68
2022/05/06 07:13:37;;;;;;;11.80;6.55;;;;;;;19.60;59.55;100839.94;4470459;32;20076;-68
2022/05/06 07:16:04;;;;;;;13.80;7.05;;;;;;;19.74;58.88;100840.25;4470626;32;20500;-68
2022/05/06 07:18:31;;;;;;;15.52;6.22;;;;;;;19.71;58.03;100831.50;4469798;32;20181;-68
2022/05/06 07:20:58;;;;;;;18.35;7.25;;;;;;;19.81;59.00;100838.19;4470261;32;20424;-68
2022/05/06 07:23:26;;;;;;;17.40;6.72;;;;;;;19.96;59.75;100839.31;4470779;32;20088;-68
2022/05/06 07:25:53;;;;;;;16.10;6.72;;;;;;;20.11;59.79;100838.69;4463905;32;20096;-68
2022/05/06 07:28:20;;;;;;;19.73;6.82;;;;;;;20.34;56.48;100842.12;4454080;32;20080;-69
2022/05/06 07:30:47;;;;;;;18.55;6.90;;;;;;;20.56;57.27;100839.38;4454955;32;20126;-68
2022/05/06 07:33:14;;;;;;;11.77;6.55;;;;;;;20.53;56.83;100838.59;4455060;32;20430;-67
2022/05/06 07:35:41;;;;;;;12.45;6.75;;;;;;;20.55;56.24;100835.81;4455722;32;20786;-67
2022/05/06 07:38:09;;;;;;;27.02;6.97;;;;;;;20.67;55.63;100843.31;4455047;32;20176;-68
2022/05/06 07:40:36;;;;;;;20.55;6.60;;;;;;;20.83;56.28;100845.25;4454738;32;20118;-68
2022/05/06 07:43:09;;;;;;;11.70;6.53;;;;;;;20.95;54.54;100840.19;4455198;32;20505;-67
2022/05/06 07:45:36;;;;;;;11.02;6.12;;;;;;;20.90;54.55;100842.22;4455641;32;20134;-67
2022/05/06 07:48:06;;;;;;;13.45;6.18;;;;;;;20.84;55.34;100844.31;4455470;32;20948;-67
2022/05/06 07:50:37;;;;;;;32.35;7.28;;;;;;;20.92;54.30;100848.38;4457875;32;20130;-67
2022/05/06 07:53:04;;;;;;;10.88;5.75;;;;;;;21.00;54.92;100854.22;4453521;32;20137;-67
2022/05/06 07:55:35;;;;;;;19.25;7.60;;;;;;;21.08;54.41;100853.84;4452821;32;20100;-67
2022/05/06 07:58:04;;;;;;;14.60;6.68;;;;;;;21.07;54.12;100846.78;4453179;32;20159;-67
2022/05/06 08:00:32;;;;;;;15.05;6.28;;;;;;;21.04;54.12;100854.09;4453250;32;20168;-67
2022/05/06 08:05:47;;;;;;;17.85;5.80;;;;;;;21.19;54.63;100848.84;4454370;32;20115;-67
2022/05/06 08:08:15;;;;;;;21.42;6.40;;;;;;;21.27;53.02;100851.13;4454893;32;20220;-67
2022/05/06 08:10:44;;;;;;;12.55;5.95;;;;;;;21.66;53.35;100852.81;4455443;32;20469;-68
2022/05/06 08:13:11;;;;;;;14.02;6.50;;;;;;;21.85;52.01;100850.94;4454444;32;20153;-67
2022/05/06 08:15:38;;;;;;;17.95;6.60;;;;;;;22.15;51.44;100853.00;4453882;32;20740;-67
2022/05/06 08:18:07;;;;;;;18.73;6.00;;;;;;;22.36;51.25;100856.38;4453704;32;20097;-67
2022/05/06 08:20:34;;;;;;;10.40;6.10;;;;;;;22.38;51.00;100854.50;4454079;32;20128;-68
2022/05/06 08:23:01;;;;;;;13.07;6.80;;;;;;;22.46;50.86;100852.25;4454059;32;20088;-68
2022/05/06 08:25:28;;;;;;;10.77;6.82;;;;;;;22.18;50.37;100848.34;4453346;32;20168;-68
2022/05/06 08:28:04;;;;;;;8.15;5.40;;;;;;;22.26;50.31;100847.97;4454457;32;20130;-68
2022/05/06 08:30:32;;;;;;;14.55;6.28;;;;;;;22.49;49.60;100845.84;4455026;32;20129;-68
2022/05/06 08:32:59;;;;;;;12.10;6.80;;;;;;;22.74;47.92;100857.00;4454302;32;20145;-68
2022/05/06 08:35:26;;;;;;;12.18;6.65;;;;;;;22.84;49.56;100847.47;4454527;32;20671;-68
2022/05/06 08:37:53;;;;;;;20.55;6.05;;;;;;;23.00;47.79;100852.88;4453654;32;20160;-68
2022/05/06 08:40:23;;;;;;;17.17;5.57;;;;;;;22.74;48.75;100848.94;4453509;32;20100;-68
2022/05/06 08:42:50;;;;;;;12.63;5.53;;;;;;;22.94;47.08;100852.38;4453728;32;20764;-67
2022/05/06 08:50:55;;;;;;;;;;;;;;;23.61;46.13;100857.44;4453971;32;20092;-67
2022/05/06 08:53:26;;;;;;;7.30;4.45;;;;;;;23.96;44.82;100849.12;4453598;32;20067;-68
2022/05/06 08:55:55;;;;;;;7.10;4.75;;;;;;;23.99;44.05;100850.75;4453768;32;20149;-68
2022/05/06 08:58:24;;;;;;;8.13;4.75;;;;;;;23.72;44.84;100858.66;4453214;32;20125;-68
2022/05/06 09:00:59;;;;;;;10.32;4.87;;;;;;;23.57;45.35;100857.72;4452793;32;20664;-68
2022/05/06 09:03:27;;;;;;;6.65;4.93;;;;;;;23.70;45.82;100857.87;4453611;32;20081;-68
2022/05/06 09:05:58;;;;;;;9.90;4.80;;;;;;;23.99;44.05;100858.81;4453745;32;20096;-68
2022/05/06 09:08:38;;;;;;;5.05;4.55;;;;;;;24.07;43.08;100857.41;4454277;32;20088;-68
2022/05/06 09:11:09;;;;;;;8.23;5.78;;;;;;;24.21;44.41;100858.41;4455079;32;20119;-68
2022/05/06 09:13:49;;;;;;;11.73;4.87;;;;;;;24.26;44.95;100858.97;4454479;32;20077;-68
2022/05/06 09:19:11;;;;;;;9.93;4.87;;;;;;;24.44;44.10;100857.00;4454308;32;20088;-68
2022/05/06 09:21:41;;;;;;;15.95;5.65;;;;;;;24.50;44.79;100852.09;4454953;32;20472;-68
2022/05/06 09:24:19;;;;;;;11.65;5.37;;;;;;;24.47;43.51;100859.50;4453838;32;20763;-68
2022/05/06 09:27:03;;;;;;;5.32;4.40;;;;;;;24.43;43.49;100858.84;4453729;32;20130;-68
2022/05/06 09:29:37;;;;;;;12.10;4.68;;;;;;;24.54;43.90;100856.34;4453871;32;20801;-68
2022/05/06 09:32:21;;;;;;;30.85;5.87;;;;;;;24.46;43.37;100863.19;4454112;32;20147;-68
2022/05/06 09:34:50;;;;;;;9.20;4.57;;;;;;;24.26;44.20;100856.28;4454677;32;20081;-68
2022/05/06 09:37:43;;;;;;;15.73;5.35;;;;;;;24.46;44.14;100861.34;4454002;32;20085;-68
2022/05/06 09:40:15;;;;;;;12.02;4.97;;;;;;;24.67;43.88;100850.19;4454293;32;20111;-68
2022/05/06 09:42:43;;;;;;;8.68;5.50;;;;;;;25.16;43.21;100856.03;4453933;32;20179;-68
2022/05/06 09:45:13;;;;;;;7.47;5.03;;;;;;;25.39;42.09;100856.31;4454150;32;20094;-69
2022/05/06 09:48:02;;;;;;;8.52;5.60;;;;;;;25.72;41.72;100848.69;4454192;32;20165;-68
2022/05/06 09:50:38;;;;;;;14.27;5.50;;;;;;;25.87;40.93;100854.03;4453689;32;20164;-68
2022/05/06 09:53:07;;;;;;;;;;;;;;;25.70;42.16;100847.03;4454364;32;20480;-68
2022/05/06 09:55:38;;;;;;;9.85;4.60;;;;;;;25.47;42.39;100845.88;4454407;32;20060;-68
2022/05/06 09:58:06;;;;;;;15.05;6.05;;;;;;;25.31;41.69;100850.59;4454031;32;20107;-68
2022/05/06 10:00:33;;;;;;;11.50;5.18;;;;;;;25.36;42.44;100843.91;4454263;32;20684;-68
2022/05/06 10:03:01;;;;;;;13.38;5.78;;;;;;;25.69;43.23;100850.69;4453866;32;20144;-68
2022/05/06 10:05:30;;;;;;;11.05;5.35;;;;;;;25.89;42.50;100842.12;4453897;32;20175;-68
2022/05/06 10:08:06;;;;;;;16.87;5.97;;;;;;;25.79;42.49;100842.84;4453560;32;20093;-68
2022/05/06 10:10:40;;;;;;;14.13;4.85;;;;;;;25.78;42.04;100847.37;4452723;32;20150;-68
2022/05/06 10:13:28;;;;;;;13.80;5.25;;;;;;;25.86;41.20;100836.94;4453939;32;20161;-68
2022/05/06 10:15:57;;;;;;;13.93;4.70;;;;;;;25.80;41.38;100840.09;4453870;32;20742;-68
2022/05/06 10:18:35;;;;;;;8.60;5.47;;;;;;;25.80;42.12;100833.81;4454227;32;20089;-68
2022/05/06 10:21:07;;;;;;;5.40;4.90;;;;;;;25.70;42.20;100837.09;4453582;32;20196;-68
2022/05/06 10:23:43;;;;;;;13.62;5.43;;;;;;;26.16;41.76;100831.25;4453541;32;20108;-68
2022/05/06 10:26:42;;;;;;;14.65;5.05;;;;;;;26.84;40.57;100830.03;4456523;32;20510;-68
2022/05/06 10:32:25;;;;;;;15.30;4.90;;;;;;;26.81;39.05;100822.16;4459782;32;20116;-68
2022/05/06 10:34:58;;;;;;;16.87;5.47;;;;;;;27.17;38.43;100823.16;4460064;32;20779;-68
2022/05/06 10:37:36;;;;;;;12.07;4.90;;;;;;;27.45;37.24;100824.63;4459573;32;20840;-67
2022/05/06 10:40:22;;;;;;;10.65;4.93;;;;;;;27.87;37.81;100822.38;4460640;32;20148;-68
2022/05/06 10:42:50;;;;;;;14.73;5.12;;;;;;;28.07;37.52;100821.69;4457405;32;20164;-68
2022/05/06 10:45:32;;;;;;;7.87;4.22;;;;;;;28.64;36.46;100811.78;4453497;32;20120;-68
2022/05/06 10:48:00;;;;;;;18.08;4.80;;;;;;;28.62;36.21;100811.03;4458171;32;20088;-68
2022/05/06 10:50:38;;;;;;;6.22;4.00;;;;;;;28.63;36.30;100817.34;4461876;32;20426;-68
2022/05/06 10:53:06;;;;;;;6.57;4.35;;;;;;;28.63;35.97;100807.34;4457144;32;20522;-68
2022/05/06 10:55:33;;;;;;;12.65;4.37;;;;;;;28.49;36.65;100804.88;4464551;32;20171;-68
2022/05/06 10:58:05;;;;;;;8.05;4.50;;;;;;;28.26;35.76;100807.53;4463289;32;20424;-68
2022/05/06 11:00:37;;;;;;;5.47;4.03;;;;;;;28.24;36.75;100808.66;4462589;32;20505;-69
2022/05/06 11:03:04;;;;;;;10.48;3.50;;;;;;;28.78;35.75;100799.81;4461991;32;20134;-69
2022/05/06 11:05:31;;;;;;;10.95;4.70;;;;;;;29.32;34.60;100796.25;4464792;32;20101;-68
2022/05/06 11:08:00;;;;;;;6.57;3.53;;;;;;;29.30;34.97;100798.25;4461788;32;20159;-68
2022/05/06 11:10:30;;;;;;;4.75;3.33;;;;;;;29.06;34.21;100798.44;4460103;32;20092;-68
2022/05/06 11:13:18;;;;;;;9.95;3.45;;;;;;;28.75;34.62;100794.62;4464205;32;20434;-68
2022/05/06 11:15:46;;;;;;;8.32;3.70;;;;;;;28.81;34.29;100794.13;4468786;32;20100;-68
2022/05/06 11:18:13;;;;;;;13.82;3.15;;;;;;;28.85;35.17;100794.75;4469078;32;20096;-68
2022/05/06 11:20:41;;;;;;;7.60;3.37;;;;;;;29.05;34.19;100789.44;4469387;32;20089;-68
2022/05/06 11:23:09;;;;;;;9.32;3.28;;;;;;;28.90;32.50;100785.22;4468858;32;20097;-68
2022/05/06 11:25:42;;;;;;;30.50;3.97;;;;;;;28.53;33.51;100784.69;4469336;32;20972;-68
2022/05/06 11:28:14;;;;;;;4.68;3.15;;;;;;;28.38;33.73;100786.78;4454605;32;20080;-69
2022/05/06 11:30:48;;;;;;;6.75;3.12;;;;;;;29.09;32.29;100781.91;4469911;32;20077;-69
2022/05/06 11:33:26;;;;;;;7.75;3.00;;;;;;;30.12;31.44;100786.72;4469127;32;20878;-68
2022/05/06 11:36:03;;;;;;;11.60;3.15;;;;;;;30.83;28.95;100778.63;4469782;32;20168;-68
2022/05/06 11:38:39;;;;;;;6.50;2.85;;;;;;;31.15;28.54;100781.09;4468253;32;20172;-68
2022/05/06 11:41:09;;;;;;;3.37;2.42;;;;;;;30.67;29.44;100777.25;4464197;32;20088;-68
2022/05/06 11:43:37;;;;;;;2.70;2.47;;;;;;;29.95;29.73;100772.75;4451738;32;20077;-68
2022/05/06 11:48:52;;;;;;;4.20;2.58;;;;;;;29.67;31.10;100773.41;4452827;32;20100;-69
2022/05/06 11:51:22;;;;;;;6.12;2.30;;;;;;;29.73;29.52;100773.75;4467337;32;20152;-68
2022/05/06 11:53:50;;;;;;;5.22;2.70;;;;;;;29.74;29.10;100771.88;4470608;32;20092;-69
2022/05/06 11:56:23;;;;;;;13.18;2.53;;;;;;;29.56;29.97;100768.87;4470001;32;20092;-68
2022/05/06 11:58:53;;;;;;;4.05;2.33;;;;;;;29.61;29.88;100768.50;4469853;32;20076;-69
2022/05/06 12:01:34;;;;;;;4.78;2.78;;;;;;;29.84;29.42;100770.09;4467095;32;20418;-68
2022/05/06 12:04:04;;;;;;;6.40;2.60;;;;;;;27.65;30.58;100763.56;4469092;32;20201;-68
2022/05/06 12:06:40;;;;;;;4.60;2.30;;;;;;;28.52;29.77;100766.69;4469710;32;20112;-68
2022/05/06 12:09:12;;;;;;;4.40;3.00;;;;;;;28.85;29.84;100754.06;4469141;32;20144;-68
2022/05/06 12:11:40;;;;;;;8.13;2.65;;;;;;;28.80;31.36;100757.16;4463652;32;166010;-68
2022/05/06 12:14:18;;;;;;;8.35;2.58;;;;;;;28.96;29.57;100762.16;4467343;32;20092;-68